sensor_id;sensor_type;location;lat;lon;timestamp;P1;durP1;ratioP1;P2;durP2;ratioP2
34978;SDS011;21185;50.978;13.720;2024-03-06T00:00:25;24.30;;;10.63;;
34978;SDS011;21185;50.978;13.720;2024-03-06T00:05:27;24.40;;;11.30;;
34978;SDS011;21185;50.978;13.720;2024-03-06T00:10:29;26.40;;;10.73;;
34978;SDS011;21185;50.978;13.720;2024-03-06T00:15:32;22.52;;;11.25;;
34978;SDS011;21185;50.978;13.720;2024-03-06T00:20:34;21.83;;;11.23;;
34978;SDS011;21185;50.978;13.720;2024-03-06T00:25:36;28.98;;;13.45;;
34978;SDS011;21185;50.978;13.720;2024-03-06T00:30:38;28.63;;;11.52;;
34978;SDS011;21185;50.978;13.720;2024-03-06T00:49:26;30.63;;;12.52;;
34978;SDS011;21185;50.978;13.720;2024-03-06T00:54:29;27.98;;;12.82;;
34978;SDS011;21185;50.978;13.720;2024-03-06T01:06:31;30.13;;;13.23;;
34978;SDS011;21185;50.978;13.720;2024-03-06T01:11:35;25.55;;;12.25;;
34978;SDS011;21185;50.978;13.720;2024-03-06T01:16:40;21.73;;;11.57;;
34978;SDS011;21185;50.978;13.720;2024-03-06T01:21:43;29.45;;;12.43;;
34978;SDS011;21185;50.978;13.720;2024-03-06T01:26:45;25.55;;;11.88;;
34978;SDS011;21185;50.978;13.720;2024-03-06T01:31:47;26.63;;;13.43;;
34978;SDS011;21185;50.978;13.720;2024-03-06T01:36:51;28.10;;;12.88;;
34978;SDS011;21185;50.978;13.720;2024-03-06T01:41:54;27.85;;;13.55;;
34978;SDS011;21185;50.978;13.720;2024-03-06T01:46:56;25.20;;;11.13;;
34978;SDS011;21185;50.978;13.720;2024-03-06T01:52:01;32.45;;;14.18;;
34978;SDS011;21185;50.978;13.720;2024-03-06T01:57:05;23.08;;;11.68;;
34978;SDS011;21185;50.978;13.720;2024-03-06T02:02:09;22.88;;;11.30;;
34978;SDS011;21185;50.978;13.720;2024-03-06T02:26:27;26.75;;;11.63;;
34978;SDS011;21185;50.978;13.720;2024-03-06T02:31:29;23.65;;;11.52;;
34978;SDS011;21185;50.978;13.720;2024-03-06T02:43:46;25.55;;;11.32;;
34978;SDS011;21185;50.978;13.720;2024-03-06T02:48:48;26.58;;;11.10;;
34978;SDS011;21185;50.978;13.720;2024-03-06T02:53:50;20.83;;;11.35;;
34978;SDS011;21185;50.978;13.720;2024-03-06T02:58:55;24.92;;;11.07;;
34978;SDS011;21185;50.978;13.720;2024-03-06T03:03:59;29.02;;;12.45;;
34978;SDS011;21185;50.978;13.720;2024-03-06T03:09:01;28.05;;;13.23;;
34978;SDS011;21185;50.978;13.720;2024-03-06T03:14:05;28.83;;;11.35;;
34978;SDS011;21185;50.978;13.720;2024-03-06T03:19:08;43.85;;;14.38;;
34978;SDS011;21185;50.978;13.720;2024-03-06T03:24:10;26.73;;;11.35;;
34978;SDS011;21185;50.978;13.720;2024-03-06T03:29:12;31.08;;;11.57;;
34978;SDS011;21185;50.978;13.720;2024-03-06T03:34:14;26.77;;;11.98;;
34978;SDS011;21185;50.978;13.720;2024-03-06T03:39:16;24.20;;;11.75;;
34978;SDS011;21185;50.978;13.720;2024-03-06T03:44:18;35.63;;;13.20;;
34978;SDS011;21185;50.978;13.720;2024-03-06T03:49:21;29.27;;;14.35;;
34978;SDS011;21185;50.978;13.720;2024-03-06T03:54:23;28.27;;;13.10;;
34978;SDS011;21185;50.978;13.720;2024-03-06T03:59:25;30.98;;;13.20;;
34978;SDS011;21185;50.978;13.720;2024-03-06T04:04:27;24.20;;;12.10;;
34978;SDS011;21185;50.978;13.720;2024-03-06T04:09:33;32.45;;;13.65;;
34978;SDS011;21185;50.978;13.720;2024-03-06T04:14:38;35.97;;;15.20;;
34978;SDS011;21185;50.978;13.720;2024-03-06T04:19:41;28.88;;;12.70;;
34978;SDS011;21185;50.978;13.720;2024-03-06T04:24:44;26.90;;;13.32;;
34978;SDS011;21185;50.978;13.720;2024-03-06T04:29:47;30.15;;;13.50;;
34978;SDS011;21185;50.978;13.720;2024-03-06T04:35:06;32.35;;;13.90;;
34978;SDS011;21185;50.978;13.720;2024-03-06T04:40:11;32.90;;;14.68;;
34978;SDS011;21185;50.978;13.720;2024-03-06T04:45:17;30.42;;;14.57;;
34978;SDS011;21185;50.978;13.720;2024-03-06T04:50:19;37.38;;;14.82;;
34978;SDS011;21185;50.978;13.720;2024-03-06T04:55:22;30.48;;;13.45;;
34978;SDS011;21185;50.978;13.720;2024-03-06T05:00:25;32.80;;;15.02;;
34978;SDS011;21185;50.978;13.720;2024-03-06T05:05:27;36.80;;;15.57;;
34978;SDS011;21185;50.978;13.720;2024-03-06T05:10:46;35.00;;;14.45;;
34978;SDS011;21185;50.978;13.720;2024-03-06T05:16:08;35.88;;;14.77;;
34978;SDS011;21185;50.978;13.720;2024-03-06T05:21:28;35.53;;;16.30;;
34978;SDS011;21185;50.978;13.720;2024-03-06T05:26:48;31.50;;;13.35;;
34978;SDS011;21185;50.978;13.720;2024-03-06T05:32:07;35.10;;;15.32;;
34978;SDS011;21185;50.978;13.720;2024-03-06T05:37:27;37.33;;;14.23;;
34978;SDS011;21185;50.978;13.720;2024-03-06T05:42:48;34.10;;;15.88;;
34978;SDS011;21185;50.978;13.720;2024-03-06T05:48:08;33.95;;;14.52;;
34978;SDS011;21185;50.978;13.720;2024-03-06T05:53:27;29.88;;;13.93;;
34978;SDS011;21185;50.978;13.720;2024-03-06T05:58:47;34.28;;;14.95;;
34978;SDS011;21185;50.978;13.720;2024-03-06T06:03:51;30.30;;;12.90;;
34978;SDS011;21185;50.978;13.720;2024-03-06T06:08:54;36.42;;;14.63;;
34978;SDS011;21185;50.978;13.720;2024-03-06T06:13:56;31.90;;;13.63;;
34978;SDS011;21185;50.978;13.720;2024-03-06T06:18:58;28.80;;;13.70;;
34978;SDS011;21185;50.978;13.720;2024-03-06T06:24:01;33.55;;;13.68;;
34978;SDS011;21185;50.978;13.720;2024-03-06T06:29:35;33.50;;;14.13;;
34978;SDS011;21185;50.978;13.720;2024-03-06T06:34:38;31.33;;;13.70;;
34978;SDS011;21185;50.978;13.720;2024-03-06T06:46:47;29.80;;;13.43;;
34978;SDS011;21185;50.978;13.720;2024-03-06T07:15:28;35.08;;;17.20;;
34978;SDS011;21185;50.978;13.720;2024-03-06T07:20:31;39.10;;;17.63;;
34978;SDS011;21185;50.978;13.720;2024-03-06T07:25:33;47.33;;;17.75;;
34978;SDS011;21185;50.978;13.720;2024-03-06T07:31:12;36.72;;;16.35;;
34978;SDS011;21185;50.978;13.720;2024-03-06T07:36:14;36.67;;;16.92;;
34978;SDS011;21185;50.978;13.720;2024-03-06T07:53:53;42.53;;;17.75;;
34978;SDS011;21185;50.978;13.720;2024-03-06T07:58:56;41.63;;;18.92;;
34978;SDS011;21185;50.978;13.720;2024-03-06T08:03:58;44.13;;;20.25;;
34978;SDS011;21185;50.978;13.720;2024-03-06T08:09:01;44.25;;;21.98;;
34978;SDS011;21185;50.978;13.720;2024-03-06T08:14:12;45.50;;;17.90;;
34978;SDS011;21185;50.978;13.720;2024-03-06T08:19:16;40.10;;;18.17;;
34978;SDS011;21185;50.978;13.720;2024-03-06T08:24:18;49.92;;;20.67;;
34978;SDS011;21185;50.978;13.720;2024-03-06T08:29:21;49.05;;;20.88;;
34978;SDS011;21185;50.978;13.720;2024-03-06T08:34:26;42.70;;;17.77;;
34978;SDS011;21185;50.978;13.720;2024-03-06T08:39:28;47.95;;;19.83;;
34978;SDS011;21185;50.978;13.720;2024-03-06T08:44:31;44.30;;;19.60;;
34978;SDS011;21185;50.978;13.720;2024-03-06T08:49:33;43.47;;;17.65;;
34978;SDS011;21185;50.978;13.720;2024-03-06T08:54:35;42.08;;;19.13;;
34978;SDS011;21185;50.978;13.720;2024-03-06T08:59:40;42.72;;;19.95;;
34978;SDS011;21185;50.978;13.720;2024-03-06T09:04:44;50.58;;;18.95;;
34978;SDS011;21185;50.978;13.720;2024-03-06T09:09:47;44.65;;;19.27;;
34978;SDS011;21185;50.978;13.720;2024-03-06T09:14:49;39.75;;;18.20;;
34978;SDS011;21185;50.978;13.720;2024-03-06T09:19:51;45.75;;;20.38;;
34978;SDS011;21185;50.978;13.720;2024-03-06T09:25:12;45.07;;;20.03;;
34978;SDS011;21185;50.978;13.720;2024-03-06T09:30:17;42.45;;;20.23;;
34978;SDS011;21185;50.978;13.720;2024-03-06T09:35:19;44.63;;;19.88;;
34978;SDS011;21185;50.978;13.720;2024-03-06T09:40:22;40.60;;;18.77;;
34978;SDS011;21185;50.978;13.720;2024-03-06T09:45:25;42.55;;;17.83;;
34978;SDS011;21185;50.978;13.720;2024-03-06T09:50:28;38.10;;;17.58;;
34978;SDS011;21185;50.978;13.720;2024-03-06T09:55:37;37.55;;;15.68;;
34978;SDS011;21185;50.978;13.720;2024-03-06T10:00:41;38.60;;;17.30;;
34978;SDS011;21185;50.978;13.720;2024-03-06T10:05:46;32.92;;;14.95;;
34978;SDS011;21185;50.978;13.720;2024-03-06T10:10:49;45.53;;;16.95;;
34978;SDS011;21185;50.978;13.720;2024-03-06T10:16:00;32.83;;;15.50;;
34978;SDS011;21185;50.978;13.720;2024-03-06T10:21:04;39.85;;;17.30;;
34978;SDS011;21185;50.978;13.720;2024-03-06T10:26:07;39.90;;;16.33;;
34978;SDS011;21185;50.978;13.720;2024-03-06T10:31:10;39.65;;;15.93;;
34978;SDS011;21185;50.978;13.720;2024-03-06T10:36:12;36.38;;;16.67;;
34978;SDS011;21185;50.978;13.720;2024-03-06T10:41:15;31.38;;;14.50;;
34978;SDS011;21185;50.978;13.720;2024-03-06T10:46:27;38.17;;;16.10;;
34978;SDS011;21185;50.978;13.720;2024-03-06T10:51:30;39.65;;;17.92;;
34978;SDS011;21185;50.978;13.720;2024-03-06T10:56:34;40.60;;;17.73;;
34978;SDS011;21185;50.978;13.720;2024-03-06T11:01:45;34.05;;;15.88;;
34978;SDS011;21185;50.978;13.720;2024-03-06T11:06:48;32.83;;;15.63;;
34978;SDS011;21185;50.978;13.720;2024-03-06T11:13:02;31.33;;;14.38;;
34978;SDS011;21185;50.978;13.720;2024-03-06T11:23:31;39.83;;;18.83;;
34978;SDS011;21185;50.978;13.720;2024-03-06T11:28:35;37.63;;;17.95;;
34978;SDS011;21185;50.978;13.720;2024-03-06T11:33:40;38.75;;;17.00;;
34978;SDS011;21185;50.978;13.720;2024-03-06T11:44:07;39.50;;;18.05;;
34978;SDS011;21185;50.978;13.720;2024-03-06T11:50:15;36.70;;;16.63;;
34978;SDS011;21185;50.978;13.720;2024-03-06T12:02:17;33.97;;;15.90;;
34978;SDS011;21185;50.978;13.720;2024-03-06T12:07:20;32.22;;;14.77;;
34978;SDS011;21185;50.978;13.720;2024-03-06T12:12:22;27.67;;;11.70;;
34978;SDS011;21185;50.978;13.720;2024-03-06T12:17:25;37.92;;;14.57;;
34978;SDS011;21185;50.978;13.720;2024-03-06T12:22:28;30.05;;;13.73;;
34978;SDS011;21185;50.978;13.720;2024-03-06T12:27:30;33.25;;;15.10;;
34978;SDS011;21185;50.978;13.720;2024-03-06T12:32:36;35.63;;;16.98;;
34978;SDS011;21185;50.978;13.720;2024-03-06T12:37:39;36.15;;;16.73;;
34978;SDS011;21185;50.978;13.720;2024-03-06T12:42:41;33.67;;;17.70;;
34978;SDS011;21185;50.978;13.720;2024-03-06T12:47:45;43.85;;;20.60;;
34978;SDS011;21185;50.978;13.720;2024-03-06T12:52:53;41.75;;;19.13;;
34978;SDS011;21185;50.978;13.720;2024-03-06T12:57:55;51.30;;;21.45;;
34978;SDS011;21185;50.978;13.720;2024-03-06T13:02:57;42.58;;;19.95;;
34978;SDS011;21185;50.978;13.720;2024-03-06T13:13:32;43.58;;;20.25;;
34978;SDS011;21185;50.978;13.720;2024-03-06T13:18:46;41.22;;;18.13;;
34978;SDS011;21185;50.978;13.720;2024-03-06T13:23:48;34.65;;;14.52;;
34978;SDS011;21185;50.978;13.720;2024-03-06T13:29:28;31.65;;;15.07;;
34978;SDS011;21185;50.978;13.720;2024-03-06T13:34:31;43.22;;;15.13;;
34978;SDS011;21185;50.978;13.720;2024-03-06T13:39:34;37.42;;;17.30;;
34978;SDS011;21185;50.978;13.720;2024-03-06T13:44:36;33.28;;;13.90;;
34978;SDS011;21185;50.978;13.720;2024-03-06T13:49:40;32.50;;;15.00;;
34978;SDS011;21185;50.978;13.720;2024-03-06T13:54:42;28.55;;;12.80;;
34978;SDS011;21185;50.978;13.720;2024-03-06T13:59:45;41.95;;;14.25;;
34978;SDS011;21185;50.978;13.720;2024-03-06T14:04:47;28.75;;;12.43;;
34978;SDS011;21185;50.978;13.720;2024-03-06T14:09:50;26.92;;;13.43;;
34978;SDS011;21185;50.978;13.720;2024-03-06T14:14:53;30.58;;;14.02;;
34978;SDS011;21185;50.978;13.720;2024-03-06T14:19:56;29.08;;;14.90;;
34978;SDS011;21185;50.978;13.720;2024-03-06T14:25:11;26.13;;;11.70;;
34978;SDS011;21185;50.978;13.720;2024-03-06T14:30:15;26.90;;;12.07;;
34978;SDS011;21185;50.978;13.720;2024-03-06T14:35:17;33.15;;;14.80;;
34978;SDS011;21185;50.978;13.720;2024-03-06T14:40:20;28.80;;;12.73;;
34978;SDS011;21185;50.978;13.720;2024-03-06T14:45:22;24.55;;;11.77;;
34978;SDS011;21185;50.978;13.720;2024-03-06T14:50:29;27.38;;;12.20;;
34978;SDS011;21185;50.978;13.720;2024-03-06T14:55:31;23.92;;;10.68;;
34978;SDS011;21185;50.978;13.720;2024-03-06T15:00:33;22.05;;;11.18;;
34978;SDS011;21185;50.978;13.720;2024-03-06T15:05:36;23.83;;;11.13;;
34978;SDS011;21185;50.978;13.720;2024-03-06T15:10:38;25.95;;;11.80;;
34978;SDS011;21185;50.978;13.720;2024-03-06T15:15:44;33.65;;;11.20;;
34978;SDS011;21185;50.978;13.720;2024-03-06T15:22:19;21.33;;;10.35;;
34978;SDS011;21185;50.978;13.720;2024-03-06T15:27:21;26.60;;;11.25;;
34978;SDS011;21185;50.978;13.720;2024-03-06T15:32:24;27.67;;;12.07;;
34978;SDS011;21185;50.978;13.720;2024-03-06T15:38:18;36.65;;;10.77;;
34978;SDS011;21185;50.978;13.720;2024-03-06T15:43:22;20.52;;;9.90;;
34978;SDS011;21185;50.978;13.720;2024-03-06T15:48:24;21.23;;;10.23;;
34978;SDS011;21185;50.978;13.720;2024-03-06T15:53:26;20.80;;;9.93;;
34978;SDS011;21185;50.978;13.720;2024-03-06T16:04:14;15.68;;;7.40;;
34978;SDS011;21185;50.978;13.720;2024-03-06T16:09:17;16.15;;;8.40;;
34978;SDS011;21185;50.978;13.720;2024-03-06T16:14:19;16.60;;;8.35;;
34978;SDS011;21185;50.978;13.720;2024-03-06T16:19:25;17.42;;;6.88;;
34978;SDS011;21185;50.978;13.720;2024-03-06T16:24:39;11.68;;;6.40;;
34978;SDS011;21185;50.978;13.720;2024-03-06T16:29:47;14.82;;;6.75;;
34978;SDS011;21185;50.978;13.720;2024-03-06T16:39:54;20.83;;;7.25;;
34978;SDS011;21185;50.978;13.720;2024-03-06T16:44:57;21.95;;;7.60;;
34978;SDS011;21185;50.978;13.720;2024-03-06T16:49:59;15.18;;;6.85;;
34978;SDS011;21185;50.978;13.720;2024-03-06T16:55:02;17.95;;;6.80;;
34978;SDS011;21185;50.978;13.720;2024-03-06T17:00:05;17.80;;;7.22;;
34978;SDS011;21185;50.978;13.720;2024-03-06T17:05:10;13.43;;;6.30;;
34978;SDS011;21185;50.978;13.720;2024-03-06T17:10:12;11.40;;;5.63;;
34978;SDS011;21185;50.978;13.720;2024-03-06T17:15:16;12.45;;;5.82;;
34978;SDS011;21185;50.978;13.720;2024-03-06T17:20:20;12.85;;;6.00;;
34978;SDS011;21185;50.978;13.720;2024-03-06T17:25:22;19.65;;;7.35;;
34978;SDS011;21185;50.978;13.720;2024-03-06T17:30:26;12.20;;;6.15;;
34978;SDS011;21185;50.978;13.720;2024-03-06T17:35:28;11.15;;;5.68;;
34978;SDS011;21185;50.978;13.720;2024-03-06T17:40:34;16.42;;;7.40;;
34978;SDS011;21185;50.978;13.720;2024-03-06T17:45:45;12.13;;;6.05;;
34978;SDS011;21185;50.978;13.720;2024-03-06T17:50:48;13.02;;;6.78;;
34978;SDS011;21185;50.978;13.720;2024-03-06T17:55:50;12.60;;;6.70;;
34978;SDS011;21185;50.978;13.720;2024-03-06T18:00:52;29.55;;;9.27;;
34978;SDS011;21185;50.978;13.720;2024-03-06T18:11:23;14.18;;;8.00;;
34978;SDS011;21185;50.978;13.720;2024-03-06T18:16:25;15.00;;;7.18;;
34978;SDS011;21185;50.978;13.720;2024-03-06T18:21:27;14.50;;;8.35;;
34978;SDS011;21185;50.978;13.720;2024-03-06T18:26:29;17.65;;;7.60;;
34978;SDS011;21185;50.978;13.720;2024-03-06T18:31:44;17.30;;;7.65;;
34978;SDS011;21185;50.978;13.720;2024-03-06T18:36:50;14.93;;;7.07;;
34978;SDS011;21185;50.978;13.720;2024-03-06T18:41:56;18.00;;;7.55;;
34978;SDS011;21185;50.978;13.720;2024-03-06T18:47:20;14.85;;;7.40;;
34978;SDS011;21185;50.978;13.720;2024-03-06T18:52:23;12.75;;;6.28;;
34978;SDS011;21185;50.978;13.720;2024-03-06T18:57:26;16.40;;;8.90;;
34978;SDS011;21185;50.978;13.720;2024-03-06T19:02:52;17.50;;;8.18;;
34978;SDS011;21185;50.978;13.720;2024-03-06T19:07:56;14.00;;;7.35;;
34978;SDS011;21185;50.978;13.720;2024-03-06T19:12:59;25.30;;;8.30;;
34978;SDS011;21185;50.978;13.720;2024-03-06T19:18:01;15.07;;;7.45;;
34978;SDS011;21185;50.978;13.720;2024-03-06T19:23:10;21.13;;;8.98;;
34978;SDS011;21185;50.978;13.720;2024-03-06T19:28:12;20.88;;;10.52;;
34978;SDS011;21185;50.978;13.720;2024-03-06T19:33:14;19.00;;;8.20;;
34978;SDS011;21185;50.978;13.720;2024-03-06T19:38:16;18.55;;;7.53;;
34978;SDS011;21185;50.978;13.720;2024-03-06T19:43:26;15.85;;;7.80;;
34978;SDS011;21185;50.978;13.720;2024-03-06T19:48:28;19.13;;;8.85;;
34978;SDS011;21185;50.978;13.720;2024-03-06T19:53:30;18.30;;;9.25;;
34978;SDS011;21185;50.978;13.720;2024-03-06T19:58:33;21.10;;;10.18;;
34978;SDS011;21185;50.978;13.720;2024-03-06T20:03:36;23.88;;;10.02;;
34978;SDS011;21185;50.978;13.720;2024-03-06T20:08:38;26.15;;;10.95;;
34978;SDS011;21185;50.978;13.720;2024-03-06T20:13:40;24.23;;;11.13;;
34978;SDS011;21185;50.978;13.720;2024-03-06T20:18:42;23.90;;;9.93;;
34978;SDS011;21185;50.978;13.720;2024-03-06T20:23:47;24.63;;;10.35;;
34978;SDS011;21185;50.978;13.720;2024-03-06T20:28:59;20.55;;;10.00;;
34978;SDS011;21185;50.978;13.720;2024-03-06T20:34:01;20.60;;;8.60;;
34978;SDS011;21185;50.978;13.720;2024-03-06T20:39:04;22.65;;;10.25;;
34978;SDS011;21185;50.978;13.720;2024-03-06T20:44:07;26.45;;;11.68;;
34978;SDS011;21185;50.978;13.720;2024-03-06T20:49:09;19.65;;;8.82;;
34978;SDS011;21185;50.978;13.720;2024-03-06T20:54:11;21.05;;;8.38;;
34978;SDS011;21185;50.978;13.720;2024-03-06T20:59:13;15.82;;;7.30;;
34978;SDS011;21185;50.978;13.720;2024-03-06T21:04:21;17.25;;;8.43;;
34978;SDS011;21185;50.978;13.720;2024-03-06T21:09:25;19.65;;;8.90;;
34978;SDS011;21185;50.978;13.720;2024-03-06T21:14:27;18.83;;;8.68;;
34978;SDS011;21185;50.978;13.720;2024-03-06T21:19:29;18.20;;;9.10;;
34978;SDS011;21185;50.978;13.720;2024-03-06T21:24:32;24.50;;;9.38;;
34978;SDS011;21185;50.978;13.720;2024-03-06T21:29:36;16.95;;;8.00;;
34978;SDS011;21185;50.978;13.720;2024-03-06T21:34:39;19.95;;;9.65;;
34978;SDS011;21185;50.978;13.720;2024-03-06T21:39:49;20.00;;;8.88;;
34978;SDS011;21185;50.978;13.720;2024-03-06T21:44:51;20.98;;;9.23;;
34978;SDS011;21185;50.978;13.720;2024-03-06T21:49:59;22.42;;;10.32;;
34978;SDS011;21185;50.978;13.720;2024-03-06T21:55:03;24.02;;;10.15;;
34978;SDS011;21185;50.978;13.720;2024-03-06T22:00:06;19.35;;;8.93;;
34978;SDS011;21185;50.978;13.720;2024-03-06T22:05:11;21.70;;;10.15;;
34978;SDS011;21185;50.978;13.720;2024-03-06T22:10:13;26.38;;;9.50;;
34978;SDS011;21185;50.978;13.720;2024-03-06T22:15:16;18.48;;;8.40;;
34978;SDS011;21185;50.978;13.720;2024-03-06T22:20:28;15.75;;;8.45;;
34978;SDS011;21185;50.978;13.720;2024-03-06T22:25:31;18.85;;;8.88;;
34978;SDS011;21185;50.978;13.720;2024-03-06T22:30:33;17.50;;;8.25;;
34978;SDS011;21185;50.978;13.720;2024-03-06T22:35:35;24.23;;;10.55;;
34978;SDS011;21185;50.978;13.720;2024-03-06T22:40:37;24.17;;;9.90;;
34978;SDS011;21185;50.978;13.720;2024-03-06T22:45:40;20.30;;;9.35;;
34978;SDS011;21185;50.978;13.720;2024-03-06T22:50:42;23.83;;;9.60;;
34978;SDS011;21185;50.978;13.720;2024-03-06T22:55:44;28.33;;;10.82;;
34978;SDS011;21185;50.978;13.720;2024-03-06T23:00:48;25.52;;;11.02;;
34978;SDS011;21185;50.978;13.720;2024-03-06T23:05:58;29.98;;;10.38;;
34978;SDS011;21185;50.978;13.720;2024-03-06T23:11:03;21.50;;;9.07;;
34978;SDS011;21185;50.978;13.720;2024-03-06T23:16:07;22.40;;;9.15;;
34978;SDS011;21185;50.978;13.720;2024-03-06T23:21:10;22.30;;;10.57;;
34978;SDS011;21185;50.978;13.720;2024-03-06T23:26:13;20.95;;;9.32;;
34978;SDS011;21185;50.978;13.720;2024-03-06T23:31:16;26.35;;;11.43;;
34978;SDS011;21185;50.978;13.720;2024-03-06T23:36:18;22.67;;;9.77;;
34978;SDS011;21185;50.978;13.720;2024-03-06T23:41:20;21.45;;;10.27;;
34978;SDS011;21185;50.978;13.720;2024-03-06T23:46:25;18.42;;;8.45;;
34978;SDS011;21185;50.978;13.720;2024-03-06T23:51:27;22.65;;;10.60;;
34978;SDS011;21185;50.978;13.720;2024-03-06T23:56:29;28.23;;;12.35;;
